Terminal Aerodrome Forecast
Issued by NWS

Home | Current Version | Previous Version | Text Only | Print | Product List | Glossary Off
Versions: 1 2 3 4 5 6 7 8 9 10 11 12 13 14 15 16 17 18 19 20 21 22 23 24 25

364
FTUS43 KABR 151130
TAFMBG
TAF
KMBG 151130Z 1512/1612 11007KT P6SM VCSH FEW035 OVC110
     FM151800 14011KT P6SM -SHRA VCTS OVC025CB
     FM152100 13008KT P6SM -SHRA OVC015
     FM160000 09008KT P6SM BKN035
     FM160500 VRB05KT P6SM BKN015=

USA.gov is the U.S. government's official web portal to all federal, state and local government web resources and services.